Time;durP1;ratioP1;P1;durP2;ratioP2;P2;SDS_P1;SDS_P2;PMS_P1;PMS_P2;Temp;Humidity;BMP_temperature;BMP_pressure;BME280_temperature;BME280_humidity;BME280_pressure;Samples;Min_cycle;Max_cycle;Signal;HPM_P1;HPM_P2
2023/05/06 00:02:09;;;;;;;14.25;11.60;;;;;;;14.57;95.19;100507.25;5111563;28;20031;-61
2023/05/06 00:04:34;;;;;;;15.55;11.35;;;;;;;14.64;95.16;100502.91;5111374;28;20530;-62
2023/05/06 00:07:00;;;;;;;14.23;10.77;;;;;;;14.61;95.38;100503.22;5111561;28;20035;-62
2023/05/06 00:09:26;;;;;;;16.92;11.07;;;;;;;14.60;95.48;100496.13;5111481;28;20023;-62
2023/05/06 00:11:52;;;;;;;13.30;10.82;;;;;;;14.64;95.26;100502.91;5111425;28;20507;-61
2023/05/06 00:14:17;;;;;;;12.40;10.40;;;;;;;14.73;95.11;100517.31;5111136;28;20076;-62
2023/05/06 00:16:43;;;;;;;13.48;10.63;;;;;;;14.64;94.91;100494.81;5111153;28;20058;-61
2023/05/06 00:19:08;;;;;;;12.00;10.65;;;;;;;14.68;94.42;100492.66;5111277;28;20050;-61
2023/05/06 00:21:34;;;;;;;14.23;12.10;;;;;;;14.69;93.93;100475.44;5111033;28;20035;-61
2023/05/06 00:23:59;;;;;;;13.00;10.63;;;;;;;14.80;93.73;100502.22;5111110;28;20026;-61
2023/05/06 00:26:25;;;;;;;14.55;11.50;;;;;;;14.80;93.78;100494.94;5110904;28;20030;-61
2023/05/06 00:28:51;;;;;;;14.23;11.13;;;;;;;14.80;93.71;100491.41;5111021;28;20027;-62
2023/05/06 00:31:16;;;;;;;11.85;10.15;;;;;;;14.81;94.03;100493.09;5110792;28;20133;-61
2023/05/06 00:33:43;;;;;;;14.90;10.82;;;;;;;14.82;93.71;100494.78;5111059;28;20023;-61
2023/05/06 00:36:08;;;;;;;11.45;9.93;;;;;;;14.82;93.70;100495.66;5110945;28;20045;-60
2023/05/06 00:38:34;;;;;;;12.32;11.02;;;;;;;14.78;93.21;100488.00;5111078;28;20039;-60
2023/05/06 00:41:00;;;;;;;13.25;11.25;;;;;;;14.82;92.52;100489.38;5111101;28;20080;-61
2023/05/06 00:43:25;;;;;;;14.88;10.75;;;;;;;14.84;92.36;100487.38;5110551;28;20045;-60
2023/05/06 00:45:51;;;;;;;12.80;10.55;;;;;;;14.84;92.67;100493.66;5110696;27;20754;-61
2023/05/06 00:48:17;;;;;;;12.77;11.30;;;;;;;14.77;92.68;100481.75;5108854;28;20470;-60
2023/05/06 00:50:43;;;;;;;16.88;11.55;;;;;;;14.74;92.28;100482.06;5109164;28;20028;-62
2023/05/06 00:53:09;;;;;;;13.38;10.93;;;;;;;14.68;92.25;100481.88;5110479;28;20455;-62
2023/05/06 00:55:35;;;;;;;13.38;11.40;;;;;;;14.73;92.31;100498.41;5109863;28;20031;-61
2023/05/06 00:58:01;;;;;;;13.73;10.70;;;;;;;14.70;92.75;100496.88;5110090;28;20038;-61
2023/05/06 01:00:26;;;;;;;12.82;10.38;;;;;;;14.67;92.92;100490.97;5110133;28;20036;-61
2023/05/06 01:02:52;;;;;;;12.73;10.32;;;;;;;14.62;92.63;100494.13;5110395;28;20084;-60
2023/05/06 01:05:21;;;;;;;16.52;10.93;;;;;;;14.58;92.65;100500.00;5110326;28;20036;-62
2023/05/06 01:08:05;;;;;;;13.07;11.05;;;;;;;14.46;92.61;100493.13;5110149;28;20030;-61
2023/05/06 01:10:52;;;;;;;;;;;;;;;14.41;92.84;100509.78;5110195;28;20023;-62
2023/05/06 01:13:33;;;;;;;13.52;10.90;;;;;;;14.36;93.38;100505.88;5109679;28;19919;-60
2023/05/06 01:16:01;;;;;;;16.70;11.60;;;;;;;14.29;93.80;100499.41;5109837;28;20513;-61
2023/05/06 01:18:31;;;;;;;17.38;11.60;;;;;;;14.26;94.04;100500.56;5108349;28;20084;-60
2023/05/06 01:20:58;;;;;;;14.88;11.23;;;;;;;14.21;94.73;100504.66;5110046;28;20038;-61
2023/05/06 01:23:24;;;;;;;15.52;11.38;;;;;;;14.03;94.75;100491.19;5109977;28;20024;-61
2023/05/06 01:25:49;;;;;;;15.57;11.95;;;;;;;14.08;94.86;100510.44;5110156;28;20023;-61
2023/05/06 01:28:15;;;;;;;14.95;11.60;;;;;;;14.02;95.18;100508.34;5109825;28;20026;-61
2023/05/06 01:30:46;;;;;;;13.40;11.82;;;;;;;13.98;95.50;100511.50;5110036;28;20055;-62
2023/05/06 01:33:28;;;;;;;16.30;12.52;;;;;;;13.92;95.02;100510.25;5110010;28;20081;-61
2023/05/06 01:36:08;;;;;;;15.13;11.27;;;;;;;13.88;95.47;100502.63;5109613;28;20028;-61
2023/05/06 01:39:17;;;;;;;17.38;12.02;;;;;;;13.80;96.29;100510.63;5109811;28;20065;-61
2023/05/06 01:41:44;;;;;;;14.38;11.93;;;;;;;13.74;96.13;100512.91;5109582;28;20118;-62
2023/05/06 01:44:10;;;;;;;17.90;13.32;;;;;;;13.65;96.71;100502.19;5109763;28;20031;-61
2023/05/06 01:46:36;;;;;;;19.33;13.57;;;;;;;13.68;96.78;100520.75;5108090;28;20034;-62
2023/05/06 01:49:05;;;;;;;17.50;12.70;;;;;;;13.62;97.16;100506.03;5109704;28;20125;-60
2023/05/06 01:51:33;;;;;;;17.73;13.07;;;;;;;13.62;97.87;100506.03;5109208;28;20020;-61
2023/05/06 01:54:00;;;;;;;16.17;11.80;;;;;;;13.57;97.58;100504.78;5109306;28;20072;-60
2023/05/06 01:56:28;;;;;;;17.15;11.82;;;;;;;13.54;98.03;100502.38;5108817;28;20479;-60
2023/05/06 01:58:54;;;;;;;14.43;11.32;;;;;;;13.40;98.11;100484.00;5109274;28;20030;-61
2023/05/06 02:01:19;;;;;;;15.30;12.30;;;;;;;13.49;97.75;100512.75;5108964;28;20039;-61
2023/05/06 02:03:45;;;;;;;17.75;12.15;;;;;;;13.46;98.61;100505.84;5108997;28;20046;-62
2023/05/06 02:06:10;;;;;;;15.52;11.63;;;;;;;13.45;98.06;100506.81;5108986;28;20015;-61
2023/05/06 02:08:35;;;;;;;16.08;12.05;;;;;;;13.34;98.53;100488.16;5108668;28;20110;-60
2023/05/06 02:11:01;;;;;;;17.73;13.13;;;;;;;13.42;98.55;100500.88;5108811;28;20047;-61
2023/05/06 02:13:26;;;;;;;15.27;12.05;;;;;;;13.40;99.11;100501.03;5108835;28;20031;-61
2023/05/06 02:15:53;;;;;;;16.30;12.20;;;;;;;13.37;99.22;100495.06;5108946;28;20027;-61
2023/05/06 02:18:19;;;;;;;17.67;12.40;;;;;;;13.37;99.54;100505.84;5108626;28;20069;-61
2023/05/06 02:20:44;;;;;;;17.08;12.95;;;;;;;13.21;99.72;100482.25;5108622;28;20023;-60
2023/05/06 02:23:10;;;;;;;16.73;12.63;;;;;;;13.25;99.46;100494.41;5108687;28;20028;-61
2023/05/06 02:25:35;;;;;;;17.65;12.77;;;;;;;13.30;99.55;100497.53;5108383;28;20028;-61
2023/05/06 02:28:00;;;;;;;14.55;11.88;;;;;;;13.22;99.59;100492.00;5108678;28;20027;-60
2023/05/06 02:30:29;;;;;;;17.45;12.27;;;;;;;13.14;99.63;100480.28;5108544;28;20501;-61
2023/05/06 02:32:54;;;;;;;16.23;11.88;;;;;;;13.18;100.00;100501.38;5108723;28;20032;-62
2023/05/06 02:35:20;;;;;;;16.33;12.80;;;;;;;13.16;100.00;100489.91;5108610;28;20050;-61
2023/05/06 02:37:45;;;;;;;14.90;12.50;;;;;;;13.01;100.00;100469.00;5108696;28;20092;-61
2023/05/06 02:40:11;;;;;;;16.40;12.13;;;;;;;13.08;100.00;100486.25;5108338;28;20063;-61
2023/05/06 02:42:36;;;;;;;15.20;12.23;;;;;;;13.07;100.00;100490.81;5108253;28;20472;-60
2023/05/06 02:45:02;;;;;;;16.85;12.13;;;;;;;12.88;100.00;100463.03;5108489;28;20035;-61
2023/05/06 02:47:28;;;;;;;15.45;12.68;;;;;;;13.02;100.00;100493.06;5109188;28;20126;-61
2023/05/06 02:49:53;;;;;;;16.80;12.13;;;;;;;13.00;100.00;100496.91;5112293;28;20039;-61
2023/05/06 02:52:18;;;;;;;19.15;12.63;;;;;;;13.01;100.00;100506.69;5113414;28;20019;-62
2023/05/06 02:54:44;;;;;;;17.20;12.55;;;;;;;12.92;100.00;100496.75;5113656;28;20027;-61
2023/05/06 02:57:09;;;;;;;14.68;12.18;;;;;;;12.96;100.00;100503.56;5113700;28;20020;-61
2023/05/06 02:59:35;;;;;;;15.93;12.00;;;;;;;12.91;100.00;100500.44;5113281;28;20076;-62
2023/05/06 03:02:01;;;;;;;15.70;12.13;;;;;;;12.87;100.00;100485.59;5113422;28;20111;-61
2023/05/06 03:04:27;;;;;;;17.65;12.38;;;;;;;12.90;100.00;100501.44;5112107;28;20039;-62
2023/05/06 03:06:52;;;;;;;15.52;12.68;;;;;;;12.88;100.00;100500.72;5112173;28;20040;-62
2023/05/06 03:09:18;;;;;;;20.73;12.38;;;;;;;12.59;100.00;100448.78;5113072;28;20046;-61
2023/05/06 03:11:43;;;;;;;13.98;11.90;;;;;;;12.83;100.00;100492.25;5113485;28;20015;-61
2023/05/06 03:14:09;;;;;;;20.52;12.23;;;;;;;12.82;100.00;100493.22;5112783;28;20012;-61
2023/05/06 03:16:34;;;;;;;15.60;12.40;;;;;;;12.83;100.00;100503.84;5146219;27;20031;-61
2023/05/06 03:19:02;;;;;;;15.65;12.35;;;;;;;12.80;100.00;100493.38;5113019;28;20023;-61
2023/05/06 03:21:27;;;;;;;14.48;11.63;;;;;;;12.79;100.00;100499.75;5112867;28;20027;-60
2023/05/06 03:23:53;;;;;;;16.35;12.93;;;;;;;12.72;100.00;100481.63;5113147;28;20084;-60
2023/05/06 03:26:18;;;;;;;16.60;12.00;;;;;;;12.77;100.00;100503.59;5111579;28;20115;-60
2023/05/06 03:28:44;;;;;;;15.30;12.85;;;;;;;12.76;100.00;100512.66;5113127;28;20068;-62
2023/05/06 03:31:09;;;;;;;15.38;12.20;;;;;;;12.74;100.00;100510.09;5112790;28;20107;-61
2023/05/06 03:33:35;;;;;;;15.38;12.35;;;;;;;12.72;100.00;100497.78;5112630;28;20098;-62
2023/05/06 03:36:00;;;;;;;15.43;13.32;;;;;;;12.75;100.00;100509.13;5113033;28;20023;-61
2023/05/06 03:38:26;;;;;;;15.00;12.32;;;;;;;12.68;100.00;100501.75;5112472;28;20030;-61
2023/05/06 03:40:52;;;;;;;18.23;13.02;;;;;;;12.57;100.00;100491.13;5112904;27;20028;-60
2023/05/06 03:43:17;;;;;;;14.70;11.93;;;;;;;12.69;100.00;100515.06;5112893;28;20020;-60
2023/05/06 03:45:43;;;;;;;18.25;12.88;;;;;;;12.62;100.00;100503.19;5113232;28;20023;-60
2023/05/06 03:48:08;;;;;;;16.38;12.68;;;;;;;12.67;100.00;100508.16;5112688;28;20058;-60
2023/05/06 03:50:34;;;;;;;14.00;11.77;;;;;;;12.55;100.00;100490.44;5112492;28;20035;-61
2023/05/06 03:52:59;;;;;;;17.40;12.70;;;;;;;12.66;100.00;100518.06;5112738;28;20035;-61
2023/05/06 03:55:25;;;;;;;16.52;13.50;;;;;;;12.68;100.00;100521.47;5112330;28;20509;-61
2023/05/06 03:57:50;;;;;;;18.25;12.77;;;;;;;12.62;100.00;100511.25;5112696;28;20023;-60
2023/05/06 04:00:16;;;;;;;16.88;12.85;;;;;;;12.68;100.00;100526.84;5111876;28;20020;-61
2023/05/06 04:02:42;;;;;;;16.65;13.32;;;;;;;12.69;100.00;100527.66;5112546;28;20039;-68
2023/05/06 04:05:07;;;;;;;18.08;13.30;;;;;;;12.72;100.00;100527.38;5112814;28;20035;-67
2023/05/06 04:07:33;;;;;;;18.75;13.80;;;;;;;12.63;100.00;100512.94;5112683;28;20031;-67
2023/05/06 04:09:59;;;;;;;20.90;14.35;;;;;;;12.78;100.00;100533.06;5111582;28;20023;-68
2023/05/06 04:12:24;;;;;;;17.77;13.43;;;;;;;12.83;100.00;100541.53;5112428;28;20109;-67
2023/05/06 04:14:50;;;;;;;15.90;13.75;;;;;;;12.83;100.00;100540.72;5112617;28;20031;-68
2023/05/06 04:17:15;;;;;;;17.15;14.30;;;;;;;12.90;100.00;100541.81;5111260;28;20028;-68
2023/05/06 04:19:41;;;;;;;15.88;14.05;;;;;;;12.70;100.00;100489.84;5112482;28;20418;-67
2023/05/06 04:22:06;;;;;;;16.27;13.65;;;;;;;12.98;100.00;100532.03;5112420;28;20034;-68
2023/05/06 04:24:32;;;;;;;18.85;14.77;;;;;;;13.01;100.00;100544.38;5112427;28;20020;-67
2023/05/06 04:26:58;;;;;;;18.48;15.20;;;;;;;13.08;100.00;100540.97;5112469;28;20051;-67
2023/05/06 04:29:24;;;;;;;20.42;15.15;;;;;;;13.15;100.00;100541.22;5110453;28;20062;-67
2023/05/06 04:31:50;;;;;;;20.83;16.00;;;;;;;13.11;100.00;100516.44;5110977;28;20035;-67
2023/05/06 04:34:16;;;;;;;18.73;14.85;;;;;;;13.35;100.00;100534.81;5112083;28;20084;-67
2023/05/06 04:36:42;;;;;;;21.02;15.88;;;;;;;13.41;100.00;100526.97;5112193;28;20306;-67
2023/05/06 04:39:09;;;;;;;21.30;16.02;;;;;;;13.63;100.00;100528.44;5112021;28;20153;-67
2023/05/06 04:41:35;;;;;;;22.52;18.10;;;;;;;13.63;100.00;100523.03;5112012;28;20400;-68
2023/05/06 04:44:01;;;;;;;20.40;17.45;;;;;;;13.77;100.00;100523.41;5112108;27;20063;-67
2023/05/06 04:46:26;;;;;;;20.83;17.45;;;;;;;13.95;100.00;100530.66;5111769;28;20062;-67
2023/05/06 04:48:52;;;;;;;21.02;17.80;;;;;;;14.06;100.00;100533.19;5110472;28;20058;-67
2023/05/06 04:51:17;;;;;;;20.83;16.13;;;;;;;14.18;100.00;100534.66;5111643;28;20042;-67
2023/05/06 04:53:43;;;;;;;22.10;17.73;;;;;;;14.29;100.00;100532.63;5112000;28;20054;-67
2023/05/06 04:56:08;;;;;;;20.67;16.33;;;;;;;14.32;100.00;100524.19;5112002;28;20110;-67
2023/05/06 04:58:34;;;;;;;17.63;15.65;;;;;;;14.51;100.00;100529.44;5111854;28;20027;-67
2023/05/06 05:01:03;;;;;;;22.35;16.67;;;;;;;14.68;100.00;100538.56;5111969;28;20036;-67
2023/05/06 05:03:29;;;;;;;19.48;15.23;;;;;;;14.81;100.00;100531.75;5093825;28;20039;-68
2023/05/06 05:05:54;;;;;;;20.92;16.50;;;;;;;14.97;100.00;100533.75;5110378;28;20031;-67
2023/05/06 05:08:20;;;;;;;19.48;15.48;;;;;;;15.14;100.00;100536.41;5111547;28;20027;-68
2023/05/06 05:10:45;;;;;;;16.90;14.98;;;;;;;15.30;100.00;100539.22;5110824;28;20024;-67
2023/05/06 05:13:12;;;;;;;17.15;13.18;;;;;;;15.51;98.68;100530.75;5111008;28;20594;-67
2023/05/06 05:15:38;;;;;;;16.77;13.98;;;;;;;15.73;96.91;100532.88;5111725;28;20449;-68
2023/05/06 05:18:04;;;;;;;21.08;15.85;;;;;;;15.96;95.53;100535.84;5111358;28;20038;-67
2023/05/06 05:20:30;;;;;;;18.38;14.55;;;;;;;16.17;94.09;100539.81;5109505;28;20024;-67
2023/05/06 05:22:55;;;;;;;21.60;14.30;;;;;;;16.38;92.69;100537.47;5108721;28;20029;-67
2023/05/06 05:25:20;;;;;;;21.17;16.75;;;;;;;16.61;91.27;100543.97;5111141;28;20029;-68
2023/05/06 05:27:46;;;;;;;21.60;16.83;;;;;;;16.64;90.23;100513.00;5111324;28;20027;-67
2023/05/06 05:30:12;;;;;;;18.38;15.90;;;;;;;16.94;89.82;100534.00;5111409;28;20498;-67
2023/05/06 05:32:37;;;;;;;20.15;17.63;;;;;;;17.10;87.42;100531.28;5111036;28;20044;-67
2023/05/06 05:35:03;;;;;;;19.77;15.80;;;;;;;17.23;86.59;100537.88;5111473;28;20044;-67
2023/05/06 05:37:28;;;;;;;15.50;13.90;;;;;;;17.34;85.06;100533.94;5111088;28;20027;-67
2023/05/06 05:39:54;;;;;;;16.55;14.68;;;;;;;17.29;83.90;100515.47;5110876;28;20036;-66
2023/05/06 05:42:20;;;;;;;16.98;14.98;;;;;;;17.45;83.01;100536.34;5109596;28;20020;-67
2023/05/06 05:44:45;;;;;;;19.38;16.25;;;;;;;17.44;82.58;100527.34;5110993;28;20020;-67
2023/05/06 05:47:11;;;;;;;16.40;14.60;;;;;;;17.54;82.74;100532.59;5092609;28;20050;-67
2023/05/06 05:49:36;;;;;;;18.08;15.75;;;;;;;17.61;82.32;100533.59;5110654;28;20421;-68
2023/05/06 05:52:02;;;;;;;17.27;14.60;;;;;;;17.71;82.07;100534.22;5110970;28;20432;-67
2023/05/06 05:54:28;;;;;;;16.33;14.43;;;;;;;17.76;81.87;100529.09;5110638;28;20440;-67
2023/05/06 05:56:53;;;;;;;18.25;15.27;;;;;;;17.86;81.38;100527.88;5110995;28;20114;-67
2023/05/06 05:59:19;;;;;;;16.90;13.93;;;;;;;17.90;81.37;100523.78;5110532;28;20038;-66
2023/05/06 06:01:44;;;;;;;19.17;16.10;;;;;;;18.09;80.58;100533.38;5110508;28;20031;-67
2023/05/06 06:04:10;;;;;;;15.65;13.73;;;;;;;18.23;79.73;100539.91;5109999;28;20031;-65
2023/05/06 06:06:35;;;;;;;20.70;15.25;;;;;;;18.34;78.29;100532.19;5109042;28;20092;-67
2023/05/06 06:09:01;;;;;;;16.55;14.63;;;;;;;18.48;77.78;100523.34;5109171;28;20106;-68
2023/05/06 06:11:27;;;;;;;15.85;14.15;;;;;;;18.54;77.09;100510.91;5109860;28;20104;-67
2023/05/06 06:13:52;;;;;;;16.73;14.07;;;;;;;18.70;75.90;100516.22;5109998;28;20438;-67
2023/05/06 06:16:18;;;;;;;15.43;13.93;;;;;;;19.05;73.28;100540.00;5110009;28;20075;-65
2023/05/06 06:18:43;;;;;;;16.45;12.52;;;;;;;19.12;72.67;100544.53;5109828;28;20020;-67
2023/05/06 06:21:09;;;;;;;18.25;15.20;;;;;;;19.14;72.46;100536.19;5109897;28;20027;-68
2023/05/06 06:23:34;;;;;;;14.15;12.43;;;;;;;19.18;71.74;100532.06;5108791;28;20020;-67
2023/05/06 06:26:02;;;;;;;15.85;13.13;;;;;;;19.15;71.41;100525.13;5110278;28;20019;-66
2023/05/06 06:28:27;;;;;;;13.20;11.80;;;;;;;19.33;71.81;100546.59;5109677;28;20049;-68
2023/05/06 06:30:53;;;;;;;14.40;11.35;;;;;;;19.34;71.62;100527.38;5110195;28;20066;-67
2023/05/06 06:33:18;;;;;;;13.23;11.77;;;;;;;19.42;71.27;100521.84;5109656;28;20031;-66
2023/05/06 06:35:43;;;;;;;13.25;11.63;;;;;;;19.68;70.44;100524.09;5109776;28;20238;-66
2023/05/06 06:38:09;;;;;;;13.55;11.98;;;;;;;19.75;68.58;100508.69;5110918;28;20054;-67
2023/05/06 06:40:34;;;;;;;13.60;10.57;;;;;;;20.12;68.43;100542.09;5109590;28;20381;-67
2023/05/06 06:43:00;;;;;;;12.30;11.00;;;;;;;20.33;66.99;100537.75;5110050;28;20015;-67
2023/05/06 06:45:25;;;;;;;11.82;10.63;;;;;;;20.55;66.54;100545.78;5109124;28;20051;-66
2023/05/06 06:47:51;;;;;;;12.85;10.48;;;;;;;20.73;65.11;100539.88;5106968;28;20040;-66
2023/05/06 06:50:17;;;;;;;11.85;9.82;;;;;;;20.96;63.99;100543.28;5098847;28;20586;-67
2023/05/06 06:52:43;;;;;;;16.30;10.93;;;;;;;21.15;61.95;100537.16;5109101;28;20034;-66
2023/05/06 06:55:09;;;;;;;17.00;12.15;;;;;;;21.39;60.81;100544.88;5105290;28;20078;-67
2023/05/06 06:57:36;;;;;;;15.02;13.48;;;;;;;21.50;61.04;100537.00;5121571;27;20031;-67
2023/05/06 07:00:02;;;;;;;11.15;9.75;;;;;;;21.57;60.56;100520.69;5098609;28;20415;-66
2023/05/06 07:02:28;;;;;;;12.77;8.73;;;;;;;21.73;59.67;100528.56;5108212;28;20034;-68
2023/05/06 07:04:53;;;;;;;10.63;8.77;;;;;;;21.85;59.67;100516.00;5108041;28;20509;-67
2023/05/06 07:07:18;;;;;;;9.77;8.88;;;;;;;22.09;59.24;100535.47;5106425;28;20540;-67
2023/05/06 07:09:44;;;;;;;11.25;9.10;;;;;;;22.24;58.34;100532.56;5107929;28;20030;-67
2023/05/06 07:12:09;;;;;;;10.95;9.95;;;;;;;22.47;56.89;100535.81;5107070;28;20015;-68
2023/05/06 07:14:35;;;;;;;10.38;7.97;;;;;;;22.29;57.10;100491.81;5104770;28;20102;-67
2023/05/06 07:17:00;;;;;;;10.40;9.23;;;;;;;22.63;56.65;100519.06;5110554;28;20047;-67
2023/05/06 07:19:27;;;;;;;11.98;7.82;;;;;;;22.78;55.83;100532.53;5108289;28;20031;-67
2023/05/06 07:21:52;;;;;;;8.63;7.72;;;;;;;22.88;55.22;100522.03;5108652;28;20039;-67
2023/05/06 07:24:18;;;;;;;11.50;9.30;;;;;;;23.17;53.76;100538.91;5107948;28;20034;-67
2023/05/06 07:26:43;;;;;;;11.02;8.18;;;;;;;23.09;53.66;100508.16;5108896;28;20024;-67
2023/05/06 07:29:09;;;;;;;9.57;8.27;;;;;;;23.38;53.54;100535.16;5109229;28;20031;-68
2023/05/06 07:31:34;;;;;;;10.02;7.72;;;;;;;23.37;53.68;100534.28;5107387;28;20020;-67
2023/05/06 07:34:00;;;;;;;12.02;8.63;;;;;;;23.48;53.38;100530.06;5109299;28;20040;-67
2023/05/06 07:36:26;;;;;;;8.07;7.13;;;;;;;23.60;53.13;100522.91;5112569;28;20054;-68
2023/05/06 07:38:52;;;;;;;9.00;8.13;;;;;;;23.76;52.97;100538.88;5112822;28;20028;-67
2023/05/06 07:41:17;;;;;;;8.68;7.68;;;;;;;23.76;53.38;100533.41;5111468;28;20032;-67
2023/05/06 07:43:43;;;;;;;10.10;7.35;;;;;;;23.77;53.34;100535.91;5112530;28;20023;-68
2023/05/06 07:46:09;;;;;;;8.52;7.63;;;;;;;23.83;53.28;100543.25;5112669;28;20031;-68
2023/05/06 07:48:34;;;;;;;9.48;6.90;;;;;;;23.90;53.16;100533.13;5112021;28;20055;-67
2023/05/06 07:51:00;;;;;;;9.75;8.35;;;;;;;23.99;52.79;100537.34;5112772;28;20037;-66
2023/05/06 07:53:26;;;;;;;10.18;7.20;;;;;;;24.08;52.96;100527.84;5112194;28;20031;-67
2023/05/06 07:55:56;;;;;;;9.18;8.27;;;;;;;24.11;53.08;100530.16;5112788;28;20098;-67
2023/05/06 07:58:21;;;;;;;8.00;6.55;;;;;;;24.13;53.17;100524.44;5110862;28;20023;-66
2023/05/06 08:00:47;;;;;;;9.65;7.90;;;;;;;24.32;52.94;100539.97;5112562;28;20322;-68
2023/05/06 08:03:12;;;;;;;8.68;7.85;;;;;;;24.38;53.12;100531.69;5111143;28;20036;-67
2023/05/06 08:05:37;;;;;;;8.98;7.90;;;;;;;24.45;53.02;100537.97;5112373;28;20050;-67
2023/05/06 08:08:04;;;;;;;7.60;6.90;;;;;;;24.51;52.37;100539.03;5111633;28;20020;-67
2023/05/06 08:10:29;;;;;;;8.35;7.55;;;;;;;24.59;52.48;100532.41;5112287;28;20027;-67
2023/05/06 08:12:55;;;;;;;12.50;8.00;;;;;;;24.59;52.35;100536.03;5112044;27;20023;-66
2023/05/06 08:15:20;;;;;;;9.07;6.90;;;;;;;24.60;52.11;100525.91;5112146;28;20081;-67
2023/05/06 08:17:46;;;;;;;10.65;6.88;;;;;;;24.66;51.85;100530.53;5112063;28;20015;-68
2023/05/06 08:20:12;;;;;;;6.47;5.85;;;;;;;24.80;51.18;100554.94;5111781;28;20495;-67
2023/05/06 08:22:38;;;;;;;6.57;5.90;;;;;;;24.82;50.12;100546.47;5111644;28;20031;-68
2023/05/06 08:25:04;;;;;;;7.80;7.05;;;;;;;24.80;50.29;100543.09;5112127;28;20031;-67
2023/05/06 08:27:30;;;;;;;9.55;6.70;;;;;;;24.81;50.98;100531.06;5110221;28;20019;-67
2023/05/06 08:29:55;;;;;;;6.60;5.95;;;;;;;24.85;50.93;100529.56;5112088;28;20031;-67
2023/05/06 08:32:21;;;;;;;7.82;6.97;;;;;;;24.94;50.36;100528.22;5110465;28;20028;-68
2023/05/06 08:34:46;;;;;;;7.35;6.22;;;;;;;25.10;50.01;100544.13;5110892;28;20090;-68
2023/05/06 08:37:11;;;;;;;7.55;5.97;;;;;;;25.14;50.38;100545.38;5111621;28;20046;-67
2023/05/06 08:39:37;;;;;;;6.63;5.93;;;;;;;25.13;50.17;100549.19;5110026;28;20036;-68
2023/05/06 08:42:03;;;;;;;6.15;5.55;;;;;;;25.21;49.11;100536.03;5111798;28;20032;-68
2023/05/06 08:44:29;;;;;;;9.48;5.30;;;;;;;25.28;48.86;100536.81;5111217;28;20019;-67
2023/05/06 08:46:55;;;;;;;6.20;4.75;;;;;;;25.39;47.94;100560.00;5111183;28;20032;-67
2023/05/06 08:49:20;;;;;;;9.52;4.70;;;;;;;25.27;48.37;100542.50;5111177;27;20059;-67
2023/05/06 08:51:48;;;;;;;5.45;4.63;;;;;;;25.27;48.41;100545.25;5111194;28;20027;-68
2023/05/06 08:54:15;;;;;;;5.90;5.05;;;;;;;25.10;48.33;100535.91;5111240;28;20027;-68
2023/05/06 08:56:46;;;;;;;5.72;5.22;;;;;;;24.99;48.57;100537.47;5109701;28;20116;-67
2023/05/06 08:59:12;;;;;;;6.72;5.65;;;;;;;25.04;48.58;100545.03;5111116;28;20395;-68
2023/05/06 09:01:38;;;;;;;6.40;5.55;;;;;;;25.00;48.49;100521.84;5109368;28;20074;-67
2023/05/06 09:04:06;;;;;;;8.05;5.22;;;;;;;25.11;48.45;100548.59;5111379;28;20023;-68
2023/05/06 09:06:31;;;;;;;6.10;5.07;;;;;;;24.99;48.34;100526.47;5110884;28;20403;-63
2023/05/06 09:08:57;;;;;;;5.97;4.78;;;;;;;25.07;48.49;100545.44;5111172;28;20030;-62
2023/05/06 09:11:24;;;;;;;5.55;5.05;;;;;;;25.06;48.73;100538.28;5110956;28;20115;-63
2023/05/06 09:14:05;;;;;;;4.72;4.32;;;;;;;25.05;48.58;100535.75;5110826;28;20019;-63
2023/05/06 09:16:31;;;;;;;6.13;4.57;;;;;;;24.92;48.52;100511.16;5111374;28;20024;-62
2023/05/06 09:18:58;;;;;;;5.55;5.05;;;;;;;24.93;48.65;100519.16;5111047;28;20035;-62
2023/05/06 09:21:53;;;;;;;4.95;4.47;;;;;;;24.88;49.18;100529.94;5110435;28;20055;-63
2023/05/06 09:24:19;;;;;;;6.28;5.68;;;;;;;24.82;48.72;100516.28;5101581;28;20107;-61
2023/05/06 09:26:46;;;;;;;5.22;4.72;;;;;;;24.78;49.07;100526.00;5110361;28;20490;-63
2023/05/06 09:29:11;;;;;;;5.97;5.22;;;;;;;24.64;49.48;100518.94;5109209;28;20022;-63
2023/05/06 09:31:42;;;;;;;6.43;5.35;;;;;;;24.60;49.18;100517.66;5108977;28;20023;-62
2023/05/06 09:34:08;;;;;;;6.05;5.35;;;;;;;24.61;48.40;100513.84;5110499;28;20031;-62
2023/05/06 09:36:33;;;;;;;5.82;4.72;;;;;;;24.53;48.92;100522.34;5110191;28;20043;-61
2023/05/06 09:38:59;;;;;;;5.20;4.70;;;;;;;24.41;49.43;100509.31;5110714;28;20110;-63
2023/05/06 09:41:24;;;;;;;5.80;5.25;;;;;;;24.40;49.72;100518.63;5110073;27;20115;-63
2023/05/06 09:43:54;;;;;;;4.97;4.50;;;;;;;24.48;49.86;100521.09;5110336;28;20042;-66
2023/05/06 09:46:21;;;;;;;8.18;4.80;;;;;;;24.55;49.80;100514.72;5110421;28;20023;-68
2023/05/06 09:48:50;;;;;;;5.40;4.63;;;;;;;24.55;49.55;100501.88;5110212;28;20527;-67
2023/05/06 09:51:15;;;;;;;4.80;4.05;;;;;;;24.64;48.63;100511.56;5110592;28;20016;-67
2023/05/06 09:53:43;;;;;;;5.38;4.28;;;;;;;24.67;48.02;100505.63;5110019;28;20080;-67
2023/05/06 09:56:08;;;;;;;8.05;3.85;;;;;;;24.72;47.19;100493.97;5110667;28;20072;-68
2023/05/06 09:58:35;;;;;;;5.13;4.30;;;;;;;24.80;47.41;100497.31;5109618;28;20099;-68
2023/05/06 10:01:05;;;;;;;5.65;4.47;;;;;;;25.03;46.25;100499.44;5110591;28;20027;-67
2023/05/06 10:03:31;;;;;;;5.80;4.00;;;;;;;25.07;46.50;100484.19;5108879;28;20039;-67
2023/05/06 10:06:00;;;;;;;4.43;3.90;;;;;;;25.08;46.57;100473.00;5108801;28;20031;-67
2023/05/06 10:08:26;;;;;;;4.93;3.72;;;;;;;25.22;46.23;100477.31;5108818;28;20388;-68
2023/05/06 10:10:53;;;;;;;4.22;3.28;;;;;;;25.30;46.02;100473.41;5092033;28;20016;-69
2023/05/06 10:13:20;;;;;;;6.40;3.75;;;;;;;25.46;45.14;100478.34;5109030;28;20037;-67
2023/05/06 10:15:48;;;;;;;4.78;3.33;;;;;;;25.43;44.06;100463.19;5109015;28;20023;-66
2023/05/06 10:18:18;;;;;;;3.90;3.60;;;;;;;25.52;43.88;100464.56;5110294;28;20106;-67
2023/05/06 10:20:45;;;;;;;4.88;3.80;;;;;;;25.68;44.09;100466.72;5109791;28;20060;-67
2023/05/06 10:23:29;;;;;;;5.68;4.05;;;;;;;25.72;43.76;100450.59;5110283;28;20111;-61
2023/05/06 10:26:08;;;;;;;3.92;3.58;;;;;;;25.82;43.98;100453.63;5108685;28;20118;-67
2023/05/06 10:28:40;;;;;;;5.47;4.50;;;;;;;25.82;43.84;100445.38;5109803;28;20541;-67
2023/05/06 10:31:12;;;;;;;4.55;4.15;;;;;;;25.72;43.77;100434.09;5109949;28;20033;-68
2023/05/06 10:33:45;;;;;;;6.78;4.35;;;;;;;25.64;44.11;100435.28;5110124;28;20081;-68
2023/05/06 10:36:21;;;;;;;5.57;4.38;;;;;;;25.63;44.17;100441.00;5110203;28;20039;-68
2023/05/06 10:38:56;;;;;;;6.05;4.35;;;;;;;25.56;44.38;100434.72;5109870;28;20051;-68
2023/05/06 10:41:23;;;;;;;6.90;3.70;;;;;;;25.48;44.59;100427.63;5109709;28;20392;-67
2023/05/06 10:43:55;;;;;;;6.57;4.93;;;;;;;25.39;44.71;100423.50;5109805;28;20027;-68
2023/05/06 10:46:30;;;;;;;6.03;4.10;;;;;;;25.13;44.82;100388.06;5109835;28;20024;-68
2023/05/06 10:49:10;;;;;;;4.75;3.38;;;;;;;25.32;45.01;100422.75;5108454;28;20047;-68
2023/05/06 10:51:37;;;;;;;4.85;3.60;;;;;;;25.33;45.22;100424.41;5109666;28;20034;-67
2023/05/06 10:54:05;;;;;;;5.53;4.18;;;;;;;25.35;45.17;100418.69;5105938;28;20033;-68
2023/05/06 10:56:39;;;;;;;5.70;3.40;;;;;;;25.44;44.43;100425.56;5109388;28;20039;-67
2023/05/06 10:59:07;;;;;;;5.93;3.72;;;;;;;25.50;44.17;100424.66;5108747;28;20031;-68
2023/05/06 11:01:41;;;;;;;4.25;3.53;;;;;;;25.50;44.05;100424.66;5110989;28;20126;-67
2023/05/06 11:04:14;;;;;;;5.18;3.60;;;;;;;25.48;43.77;100422.16;5089547;28;20028;-68
2023/05/06 11:06:40;;;;;;;4.88;3.75;;;;;;;25.44;43.25;100422.84;5089494;28;20610;-68
2023/05/06 11:09:23;;;;;;;4.47;3.88;;;;;;;25.39;43.18;100417.16;5091237;28;20492;-67
2023/05/06 11:12:02;;;;;;;4.45;3.47;;;;;;;25.34;43.17;100408.78;5099358;27;20223;-67
2023/05/06 11:14:35;;;;;;;3.95;3.50;;;;;;;25.30;43.05;100408.34;5108513;28;20036;-68